createdAt,value
2022-11-27T00:00:14.624Z,16.90
2022-11-27T00:01:14.795Z,19.90
2022-11-27T00:02:15.045Z,26.10
2022-11-27T00:03:15.186Z,15.40
2022-11-27T00:04:15.385Z,21.00
2022-11-27T00:05:15.484Z,25.30
2022-11-27T00:06:15.679Z,20.20
2022-11-27T00:07:15.883Z,18.50
2022-11-27T00:08:15.994Z,20.20
2022-11-27T00:09:16.173Z,20.00
2022-11-27T00:10:16.363Z,21.00
2022-11-27T00:11:16.535Z,14.90
2022-11-27T00:12:16.720Z,19.70
2022-11-27T00:13:16.894Z,18.80
2022-11-27T00:14:17.072Z,17.00
2022-11-27T00:15:17.550Z,17.30
2022-11-27T00:16:17.497Z,20.50
2022-11-27T00:17:17.585Z,19.70
2022-11-27T00:18:17.764Z,17.80
2022-11-27T00:19:17.915Z,17.00
2022-11-27T00:20:18.093Z,17.00
2022-11-27T00:21:18.272Z,22.30
2022-11-27T00:22:18.443Z,16.70
2022-11-27T00:23:18.631Z,21.00
2022-11-27T00:24:18.811Z,21.50
2022-11-27T00:25:18.992Z,20.70
2022-11-27T00:26:19.163Z,20.00
2022-11-27T00:27:19.332Z,13.60
2022-11-27T00:28:19.504Z,18.20
2022-11-27T00:29:19.680Z,18.10
2022-11-27T00:30:19.872Z,18.50
2022-11-27T00:31:20.077Z,18.90
2022-11-27T00:32:20.202Z,19.10
2022-11-27T00:33:20.361Z,12.30
2022-11-27T00:34:20.542Z,18.40
2022-11-27T00:35:20.734Z,17.90
2022-11-27T00:36:20.912Z,23.90
2022-11-27T00:37:21.073Z,21.70
2022-11-27T00:38:21.262Z,17.50
2022-11-27T00:39:21.447Z,20.40
2022-11-27T00:40:21.623Z,22.10
2022-11-27T00:41:21.792Z,17.80
2022-11-27T00:42:21.973Z,20.40
2022-11-27T00:43:22.143Z,16.00
2022-11-27T00:44:22.331Z,21.00
2022-11-27T00:45:22.515Z,15.40
2022-11-27T00:46:27.841Z,16.60
2022-11-27T00:47:23.871Z,21.40
2022-11-27T00:48:23.041Z,18.70
2022-11-27T00:49:23.206Z,16.20
2022-11-27T00:50:23.423Z,16.50
2022-11-27T00:51:23.559Z,19.30
2022-11-27T00:52:23.732Z,21.20
2022-11-27T00:53:23.892Z,18.20
2022-11-27T00:54:24.072Z,16.00
2022-11-27T00:55:24.252Z,21.00
2022-11-27T00:56:24.415Z,19.10
2022-11-27T00:57:24.602Z,17.40
2022-11-27T00:58:24.770Z,14.90
2022-11-27T00:59:24.954Z,17.90
2022-11-27T01:00:25.139Z,17.90
2022-11-27T01:01:25.287Z,15.30
2022-11-27T01:02:25.518Z,17.70
2022-11-27T01:03:25.601Z,19.90
2022-11-27T01:04:25.793Z,13.80
2022-11-27T01:05:25.988Z,18.70
2022-11-27T01:06:26.121Z,15.30
2022-11-27T01:07:26.315Z,14.70
2022-11-27T01:08:26.451Z,20.10
2022-11-27T01:09:26.626Z,19.40
2022-11-27T01:10:26.812Z,22.00
2022-11-27T01:11:26.984Z,17.50
2022-11-27T01:12:27.163Z,14.20
2022-11-27T01:13:27.338Z,18.80
2022-11-27T01:14:27.544Z,20.20
2022-11-27T01:15:27.700Z,25.90
2022-11-27T01:16:27.930Z,23.40
2022-11-27T01:17:28.019Z,19.20
2022-11-27T01:18:28.190Z,17.80
2022-11-27T01:19:28.371Z,23.90
2022-11-27T01:20:28.550Z,19.90
2022-11-27T01:21:28.761Z,18.10
2022-11-27T01:22:28.901Z,19.40
2022-11-27T01:23:29.072Z,18.90
2022-11-27T01:24:29.244Z,16.90
2022-11-27T01:25:29.450Z,18.30
2022-11-27T01:26:29.580Z,19.70
2022-11-27T01:27:29.761Z,15.20
2022-11-27T01:28:29.929Z,16.20
2022-11-27T01:29:30.109Z,17.50
2022-11-27T01:30:30.281Z,20.40
2022-11-27T01:31:30.534Z,17.20
2022-11-27T01:32:30.642Z,20.80
2022-11-27T01:33:30.821Z,17.40
2022-11-27T01:34:30.992Z,22.60
2022-11-27T01:35:33.652Z,19.20
2022-11-27T01:36:31.359Z,17.80
2022-11-27T01:37:31.531Z,20.80
2022-11-27T01:38:31.706Z,27.20
2022-11-27T01:39:31.887Z,19.80
2022-11-27T01:40:32.074Z,16.20
2022-11-27T01:41:32.279Z,19.70
2022-11-27T01:42:32.421Z,22.00
2022-11-27T01:43:32.591Z,24.30
2022-11-27T01:44:32.800Z,18.80
2022-11-27T01:45:32.941Z,19.80
2022-11-27T01:46:33.220Z,17.40
2022-11-27T01:47:33.308Z,17.00
2022-11-27T01:48:33.486Z,19.50
2022-11-27T01:49:33.676Z,25.50
2022-11-27T01:50:33.878Z,23.20
2022-11-27T01:51:34.019Z,21.70
2022-11-27T01:52:34.188Z,14.70
2022-11-27T01:53:34.362Z,24.00
2022-11-27T01:54:34.530Z,18.10
2022-11-27T01:55:34.714Z,20.40
2022-11-27T01:56:34.877Z,23.00
2022-11-27T01:57:35.048Z,17.00
2022-11-27T01:58:35.219Z,17.50
2022-11-27T01:59:35.398Z,27.70
2022-11-27T02:00:35.588Z,18.30
2022-11-27T02:01:35.778Z,19.80
2022-11-27T02:02:35.954Z,24.20
2022-11-27T02:03:36.094Z,22.20
2022-11-27T02:04:36.257Z,26.80
2022-11-27T02:05:36.438Z,16.50
2022-11-27T02:06:36.577Z,19.20
2022-11-27T02:07:36.831Z,16.30
2022-11-27T02:08:36.937Z,21.40
2022-11-27T02:09:37.108Z,20.90
2022-11-27T02:10:37.301Z,18.40
2022-11-27T02:11:37.436Z,21.90
2022-11-27T02:12:37.599Z,19.70
2022-11-27T02:13:37.779Z,20.20
2022-11-27T02:14:38.219Z,26.30
2022-11-27T02:15:38.187Z,22.50
2022-11-27T02:16:38.385Z,23.90
2022-11-27T02:17:38.497Z,17.80
2022-11-27T02:18:38.671Z,21.90
2022-11-27T02:19:38.840Z,26.40
2022-11-27T02:20:39.026Z,25.20
2022-11-27T02:21:39.206Z,28.60
2022-11-27T02:22:39.376Z,17.40
2022-11-27T02:23:39.549Z,26.10
2022-11-27T02:24:40.054Z,25.30
2022-11-27T02:25:39.906Z,20.80
2022-11-27T02:26:40.066Z,24.20
2022-11-27T02:27:40.236Z,19.70
2022-11-27T02:28:40.413Z,21.30
2022-11-27T02:29:40.587Z,26.80
2022-11-27T02:30:40.767Z,21.10
2022-11-27T02:31:40.999Z,28.50
2022-11-27T02:32:41.118Z,22.10
2022-11-27T02:33:41.277Z,18.30
2022-11-27T02:34:41.590Z,23.30
2022-11-27T02:35:41.656Z,19.70
2022-11-27T02:36:41.836Z,23.90
2022-11-27T02:37:41.996Z,23.60
2022-11-27T02:38:42.156Z,21.90
2022-11-27T02:39:42.322Z,23.40
2022-11-27T02:40:42.507Z,20.30
2022-11-27T02:41:42.679Z,22.30
2022-11-27T02:42:42.834Z,21.90
2022-11-27T02:43:43.008Z,28.60
2022-11-27T02:44:43.176Z,26.70
2022-11-27T02:45:43.365Z,25.40
2022-11-27T02:46:43.569Z,19.80
2022-11-27T02:47:43.724Z,25.70
2022-11-27T02:48:43.895Z,26.20
2022-11-27T02:49:44.076Z,23.60
2022-11-27T02:50:44.255Z,14.80
2022-11-27T02:51:44.423Z,21.20
2022-11-27T02:52:44.584Z,20.50
2022-11-27T02:53:44.756Z,17.90
2022-11-27T02:54:44.924Z,19.40
2022-11-27T02:55:45.104Z,21.80
2022-11-27T02:56:45.316Z,22.00
2022-11-27T02:57:45.453Z,17.70
2022-11-27T02:58:45.624Z,24.90
2022-11-27T02:59:45.801Z,21.90
2022-11-27T03:00:45.982Z,20.40
2022-11-27T03:01:46.250Z,22.50
2022-11-27T03:02:46.442Z,18.70
2022-11-27T03:03:46.474Z,18.20
2022-11-27T03:04:46.636Z,22.00
2022-11-27T03:05:46.817Z,21.40
2022-11-27T03:06:46.984Z,19.40
2022-11-27T03:07:47.208Z,28.30
2022-11-27T03:08:47.343Z,20.90
2022-11-27T03:09:47.523Z,24.20
2022-11-27T03:10:47.692Z,21.90
2022-11-27T03:11:47.875Z,23.20
2022-11-27T03:12:48.042Z,22.10
2022-11-27T03:13:48.209Z,20.90
2022-11-27T03:14:48.381Z,20.90
2022-11-27T03:15:48.598Z,20.10
2022-11-27T03:16:48.724Z,20.00
2022-11-27T03:17:48.912Z,20.30
2022-11-27T03:18:49.082Z,16.20
2022-11-27T03:19:49.261Z,14.70
2022-11-27T03:20:49.471Z,15.60
2022-11-27T03:21:49.622Z,17.00
2022-11-27T03:22:49.788Z,18.60
2022-11-27T03:23:49.952Z,24.40
2022-11-27T03:24:50.112Z,20.20
2022-11-27T03:25:50.310Z,18.00
2022-11-27T03:26:50.503Z,22.40
2022-11-27T03:27:50.632Z,18.90
2022-11-27T03:28:50.810Z,19.80
2022-11-27T03:29:50.970Z,20.70
2022-11-27T03:30:51.193Z,19.30
2022-11-27T03:31:51.337Z,15.90
2022-11-27T03:32:51.494Z,17.40
2022-11-27T03:33:51.680Z,19.60
2022-11-27T03:34:51.841Z,15.60
2022-11-27T03:35:52.032Z,20.10
2022-11-27T03:36:52.191Z,18.50
2022-11-27T03:37:52.364Z,21.40
2022-11-27T03:38:52.536Z,25.00
2022-11-27T03:39:52.705Z,21.80
2022-11-27T03:40:52.871Z,21.30
2022-11-27T03:41:53.061Z,23.60
2022-11-27T03:42:53.219Z,16.20
2022-11-27T03:43:53.391Z,22.30
2022-11-27T03:44:53.560Z,19.20
2022-11-27T03:45:53.749Z,21.00
2022-11-27T03:46:54.010Z,16.10
2022-11-27T03:47:54.184Z,23.30
2022-11-27T03:48:54.269Z,22.30
2022-11-27T03:49:54.444Z,23.30
2022-11-27T03:50:54.601Z,20.20
2022-11-27T03:51:54.778Z,20.40
2022-11-27T03:52:54.949Z,21.10
2022-11-27T03:53:55.109Z,20.60
2022-11-27T03:54:55.289Z,16.40
2022-11-27T03:55:55.457Z,19.40
2022-11-27T03:56:55.619Z,16.90
2022-11-27T03:57:55.797Z,16.50
2022-11-27T03:58:55.961Z,21.30
2022-11-27T03:59:56.144Z,18.10
2022-11-27T04:00:56.310Z,15.60
2022-11-27T04:01:56.540Z,21.00
2022-11-27T04:02:56.630Z,14.70
2022-11-27T04:03:56.865Z,19.10
2022-11-27T04:04:56.958Z,15.00
2022-11-27T04:05:57.138Z,21.20
2022-11-27T04:06:57.299Z,20.40
2022-11-27T04:07:57.557Z,25.20
2022-11-27T04:08:57.639Z,15.90
2022-11-27T04:09:57.809Z,20.90
2022-11-27T04:10:57.968Z,23.10
2022-11-27T04:11:58.150Z,23.70
2022-11-27T04:12:58.352Z,17.90
2022-11-27T04:13:58.496Z,17.70
2022-11-27T04:14:58.648Z,19.20
2022-11-27T04:15:58.861Z,24.20
2022-11-27T04:16:59.025Z,18.70
2022-11-27T04:17:59.164Z,15.40
2022-11-27T04:18:59.327Z,16.60
2022-11-27T04:19:59.499Z,21.80
2022-11-27T04:20:59.687Z,18.70
2022-11-27T04:21:59.857Z,25.20
2022-11-27T04:23:00.012Z,19.70
2022-11-27T04:24:00.176Z,19.50
2022-11-27T04:25:00.356Z,22.00
2022-11-27T04:26:00.524Z,22.10
2022-11-27T04:27:00.685Z,23.10
2022-11-27T04:28:00.854Z,25.40
2022-11-27T04:29:01.024Z,19.80
2022-11-27T04:30:01.187Z,17.10
2022-11-27T04:31:01.435Z,19.10
2022-11-27T04:32:01.526Z,20.70
2022-11-27T04:33:01.716Z,24.70
2022-11-27T04:34:01.889Z,22.60
2022-11-27T04:35:02.055Z,26.90
2022-11-27T04:36:02.245Z,27.60
2022-11-27T04:37:02.436Z,21.60
2022-11-27T04:38:02.597Z,24.40
2022-11-27T04:39:02.765Z,25.70
2022-11-27T04:40:02.934Z,22.10
2022-11-27T04:41:03.116Z,23.30
2022-11-27T04:42:03.274Z,23.20
2022-11-27T04:43:03.445Z,25.00
2022-11-27T04:44:03.636Z,21.50
2022-11-27T04:45:03.795Z,25.70
2022-11-27T04:46:03.964Z,23.20
2022-11-27T04:47:04.226Z,20.60
2022-11-27T04:48:04.316Z,26.90
2022-11-27T04:49:04.484Z,22.60
2022-11-27T04:50:04.653Z,18.90
2022-11-27T04:51:04.844Z,22.90
2022-11-27T04:52:05.001Z,26.00
2022-11-27T04:53:05.158Z,23.50
2022-11-27T04:54:05.334Z,26.00
2022-11-27T04:55:05.505Z,23.30
2022-11-27T04:56:05.684Z,30.70
2022-11-27T04:57:05.833Z,23.60
2022-11-27T04:58:06.014Z,24.70
2022-11-27T04:59:06.173Z,25.00
2022-11-27T05:00:06.363Z,23.70
2022-11-27T05:01:06.572Z,24.50
2022-11-27T05:02:06.714Z,25.40
2022-11-27T05:03:06.944Z,22.00
2022-11-27T05:04:07.060Z,22.70
2022-11-27T05:05:07.233Z,27.30
2022-11-27T05:06:07.420Z,24.40
2022-11-27T05:07:07.582Z,21.80
2022-11-27T05:08:07.751Z,29.40
2022-11-27T05:09:07.922Z,28.60
2022-11-27T05:10:08.106Z,22.40
2022-11-27T05:11:08.304Z,23.30
2022-11-27T05:12:08.441Z,23.50
2022-11-27T05:13:08.624Z,23.80
2022-11-27T05:14:08.792Z,20.30
2022-11-27T05:15:08.951Z,24.10
2022-11-27T05:16:09.218Z,20.60
2022-11-27T05:17:09.310Z,29.60
2022-11-27T05:18:09.502Z,26.60
2022-11-27T05:19:09.650Z,27.30
2022-11-27T05:20:09.841Z,31.00
2022-11-27T05:21:10.040Z,34.40
2022-11-27T05:22:10.202Z,28.50
2022-11-27T05:23:10.379Z,22.40
2022-11-27T05:24:10.571Z,29.40
2022-11-27T05:25:10.760Z,26.90
2022-11-27T05:26:10.981Z,25.00
2022-11-27T05:27:11.119Z,31.40
2022-11-27T05:28:11.307Z,24.70
2022-11-27T05:29:11.499Z,25.20
2022-11-27T05:30:11.681Z,21.60
2022-11-27T05:31:11.873Z,21.80
2022-11-27T05:32:12.039Z,22.90
2022-11-27T05:33:12.189Z,32.80
2022-11-27T05:34:12.368Z,27.10
2022-11-27T05:35:12.568Z,19.60
2022-11-27T05:36:12.729Z,23.60
2022-11-27T05:37:19.087Z,24.20
2022-11-27T05:38:14.086Z,25.30
2022-11-27T05:39:13.258Z,20.50
2022-11-27T05:40:13.437Z,30.40
2022-11-27T05:41:13.638Z,27.60
2022-11-27T05:42:13.785Z,31.60
2022-11-27T05:43:13.968Z,28.60
2022-11-27T05:44:14.160Z,31.80
2022-11-27T05:45:14.328Z,25.90
2022-11-27T05:46:14.574Z,18.40
2022-11-27T05:47:14.677Z,24.20
2022-11-27T05:48:14.875Z,21.10
2022-11-27T05:49:15.055Z,21.40
2022-11-27T05:50:15.226Z,19.70
2022-11-27T05:51:15.417Z,20.30
2022-11-27T05:52:15.556Z,22.60
2022-11-27T05:53:15.716Z,22.80
2022-11-27T05:54:15.886Z,28.10
2022-11-27T05:55:16.095Z,21.80
2022-11-27T05:56:16.258Z,23.20
2022-11-27T05:57:16.426Z,23.20
2022-11-27T05:58:16.588Z,25.20
2022-11-27T05:59:16.759Z,22.90
2022-11-27T06:00:16.918Z,22.00
2022-11-27T06:01:17.096Z,23.00
2022-11-27T06:02:21.717Z,29.00
2022-11-27T06:03:18.464Z,25.50
2022-11-27T06:04:17.604Z,22.30
2022-11-27T06:05:17.786Z,26.70
2022-11-27T06:06:17.957Z,26.10
2022-11-27T06:07:18.191Z,29.30
2022-11-27T06:08:18.295Z,21.60
2022-11-27T06:09:18.474Z,24.30
2022-11-27T06:10:18.653Z,25.30
2022-11-27T06:11:18.866Z,38.90
2022-11-27T06:12:19.004Z,26.70
2022-11-27T06:13:19.184Z,19.80
2022-11-27T06:14:19.354Z,24.40
2022-11-27T06:15:19.544Z,20.90
2022-11-27T06:16:19.757Z,19.70
2022-11-27T06:17:19.924Z,42.70
2022-11-27T06:18:20.300Z,27.80
2022-11-27T06:19:20.243Z,23.70
2022-11-27T06:20:20.424Z,27.50
2022-11-27T06:21:20.603Z,32.80
2022-11-27T06:22:20.775Z,39.50
2022-11-27T06:23:20.953Z,45.00
2022-11-27T06:24:21.133Z,24.40
2022-11-27T06:25:21.323Z,27.90
2022-11-27T06:26:21.513Z,25.00
2022-11-27T06:27:21.672Z,24.30
2022-11-27T06:28:21.887Z,33.70
2022-11-27T06:29:22.023Z,22.20
2022-11-27T06:30:22.279Z,23.10
2022-11-27T06:31:22.457Z,21.30
2022-11-27T06:32:22.552Z,51.80
2022-11-27T06:33:22.719Z,45.40
2022-11-27T06:34:22.872Z,45.90
2022-11-27T06:35:23.106Z,77.40
2022-11-27T06:36:23.271Z,39.40
2022-11-27T06:37:23.441Z,42.80
2022-11-27T06:38:23.612Z,59.40
2022-11-27T06:39:23.797Z,27.30
2022-11-27T06:40:23.970Z,37.10
2022-11-27T06:41:24.150Z,34.60
2022-11-27T06:42:24.330Z,35.90
2022-11-27T06:43:24.536Z,26.80
2022-11-27T06:44:24.681Z,26.50
2022-11-27T06:45:24.895Z,23.80
2022-11-27T06:46:25.070Z,20.10
2022-11-27T06:47:25.265Z,28.30
2022-11-27T06:48:25.377Z,28.50
2022-11-27T06:49:25.559Z,18.70
2022-11-27T06:50:25.750Z,31.60
2022-11-27T06:51:25.959Z,22.40
2022-11-27T06:52:26.099Z,49.80
2022-11-27T06:53:26.320Z,35.50
2022-11-27T06:54:26.476Z,24.10
2022-11-27T06:55:26.640Z,50.70
2022-11-27T06:56:26.780Z,85.10
2022-11-27T06:57:26.976Z,29.80
2022-11-27T06:58:31.021Z,41.30
2022-11-27T06:59:27.293Z,109.90
2022-11-27T07:00:27.479Z,302.40
2022-11-27T07:01:27.743Z,307.70
2022-11-27T07:02:27.897Z,104.70
2022-11-27T07:03:28.027Z,142.90
2022-11-27T07:04:28.168Z,134.60
2022-11-27T07:05:28.349Z,108.00
2022-11-27T07:06:28.558Z,145.10
2022-11-27T07:07:28.766Z,101.00
2022-11-27T07:08:28.879Z,111.20
2022-11-27T07:09:29.058Z,307.30
2022-11-27T07:10:29.238Z,81.20
2022-11-27T07:11:29.428Z,156.30
2022-11-27T07:12:29.607Z,86.10
2022-11-27T07:13:29.748Z,86.40
2022-11-27T07:14:29.906Z,107.70
2022-11-27T07:15:30.097Z,256.40
2022-11-27T07:16:30.345Z,247.00
2022-11-27T07:17:30.447Z,284.00
2022-11-27T07:18:30.619Z,196.80
2022-11-27T07:19:30.813Z,209.30
2022-11-27T07:20:30.977Z,62.30
2022-11-27T07:21:31.150Z,80.40
2022-11-27T07:22:31.295Z,109.40
2022-11-27T07:23:31.495Z,123.20
2022-11-27T07:24:31.646Z,150.10
2022-11-27T07:25:31.858Z,47.60
2022-11-27T07:26:32.037Z,24.40
2022-11-27T07:27:32.215Z,178.20
2022-11-27T07:28:32.397Z,240.90
2022-11-27T07:29:32.576Z,275.10
2022-11-27T07:30:32.726Z,244.50
2022-11-27T07:31:32.958Z,166.10
2022-11-27T07:32:33.074Z,118.20
2022-11-27T07:33:33.267Z,40.90
2022-11-27T07:34:33.454Z,137.50
2022-11-27T07:35:33.613Z,88.90
2022-11-27T07:36:33.814Z,64.60
2022-11-27T07:37:33.980Z,97.70
2022-11-27T07:38:34.124Z,49.60
2022-11-27T07:40:00.659Z,44.30
2022-11-27T07:40:35.545Z,147.70
2022-11-27T07:41:34.666Z,52.20
2022-11-27T07:42:38.987Z,35.90
2022-11-27T07:43:35.013Z,30.60
2022-11-27T07:44:35.174Z,19.20
2022-11-27T07:45:35.413Z,25.20
2022-11-27T07:46:35.553Z,36.50
2022-11-27T07:47:35.735Z,53.00
2022-11-27T07:48:35.894Z,25.70
2022-11-27T07:49:36.092Z,102.10
2022-11-27T07:50:36.264Z,26.30
2022-11-27T07:51:36.474Z,20.70
2022-11-27T07:52:41.075Z,32.40
2022-11-27T07:53:37.792Z,26.80
2022-11-27T07:54:36.944Z,18.70
2022-11-27T07:55:37.122Z,22.80
2022-11-27T07:56:37.325Z,20.00
2022-11-27T07:57:37.473Z,17.00
2022-11-27T07:58:37.630Z,24.80
2022-11-27T07:59:38.733Z,22.30
2022-11-27T08:00:38.055Z,23.00
2022-11-27T08:01:38.232Z,21.40
2022-11-27T08:02:38.351Z,20.80
2022-11-27T08:03:38.541Z,21.50
2022-11-27T08:04:39.027Z,20.20
2022-11-27T08:05:38.900Z,21.30
2022-11-27T08:06:39.189Z,30.70
2022-11-27T08:07:39.294Z,41.50
2022-11-27T08:08:39.431Z,18.80
2022-11-27T08:09:39.626Z,26.30
2022-11-27T08:10:39.784Z,19.60
2022-11-27T08:11:39.972Z,24.80
2022-11-27T08:12:40.159Z,28.50
2022-11-27T08:13:40.321Z,22.30
2022-11-27T08:14:40.746Z,20.50
2022-11-27T08:15:40.661Z,19.10
2022-11-27T08:16:40.908Z,28.10
2022-11-27T08:17:41.016Z,25.60
2022-11-27T08:18:41.151Z,22.60
2022-11-27T08:19:41.344Z,25.50
2022-11-27T08:20:41.531Z,20.80
2022-11-27T08:21:41.729Z,23.30
2022-11-27T08:22:41.870Z,33.20
2022-11-27T08:23:42.059Z,20.00
2022-11-27T08:24:42.528Z,22.40
2022-11-27T08:25:42.414Z,26.30
2022-11-27T08:26:42.615Z,21.30
2022-11-27T08:27:42.760Z,23.30
2022-11-27T08:28:42.924Z,18.70
2022-11-27T08:29:43.108Z,21.20
2022-11-27T08:30:43.260Z,24.90
2022-11-27T08:31:43.486Z,19.00
2022-11-27T08:32:43.588Z,18.80
2022-11-27T08:33:43.761Z,16.00
2022-11-27T08:34:43.928Z,20.80
2022-11-27T08:35:44.119Z,19.50
2022-11-27T08:36:44.259Z,21.70
2022-11-27T08:37:44.428Z,19.10
2022-11-27T08:38:44.620Z,19.00
2022-11-27T08:39:44.817Z,19.80
2022-11-27T08:40:44.966Z,20.40
2022-11-27T08:41:45.190Z,15.60
2022-11-27T08:42:45.332Z,19.70
2022-11-27T08:43:45.519Z,18.20
2022-11-27T08:44:45.678Z,21.70
2022-11-27T08:45:45.893Z,20.80
2022-11-27T08:46:46.034Z,16.30
2022-11-27T08:47:46.197Z,19.40
2022-11-27T08:48:46.348Z,18.10
2022-11-27T08:49:46.579Z,15.70
2022-11-27T08:50:46.718Z,16.50
2022-11-27T08:51:46.909Z,18.40
2022-11-27T08:52:47.064Z,14.80
2022-11-27T08:53:47.247Z,17.20
2022-11-27T08:54:47.455Z,19.70
2022-11-27T08:55:47.626Z,19.40
2022-11-27T08:56:47.786Z,17.50
2022-11-27T08:57:47.987Z,19.10
2022-11-27T08:58:48.136Z,12.10
2022-11-27T08:59:48.339Z,17.10
2022-11-27T09:00:48.550Z,12.70
2022-11-27T09:01:48.713Z,16.90
2022-11-27T09:02:48.816Z,16.10
2022-11-27T09:03:49.057Z,19.60
2022-11-27T09:04:49.199Z,15.80
2022-11-27T09:05:49.345Z,13.50
2022-11-27T09:06:51.973Z,15.70
2022-11-27T09:07:50.777Z,16.70
2022-11-27T09:08:49.892Z,15.20
2022-11-27T09:09:50.086Z,16.90
2022-11-27T09:10:50.253Z,15.50
2022-11-27T09:11:50.436Z,14.80
2022-11-27T09:12:50.604Z,14.20
2022-11-27T09:13:50.778Z,13.90
2022-11-27T09:14:50.935Z,14.20
2022-11-27T09:15:51.116Z,17.00
2022-11-27T09:16:51.316Z,16.90
2022-11-27T09:17:51.452Z,11.40
2022-11-27T09:18:51.670Z,12.70
2022-11-27T09:19:51.783Z,11.50
2022-11-27T09:20:51.951Z,13.30
2022-11-27T09:21:52.154Z,15.90
2022-11-27T09:22:52.294Z,13.70
2022-11-27T09:23:52.484Z,9.60
2022-11-27T09:24:52.662Z,9.40
2022-11-27T09:25:52.843Z,13.60
2022-11-27T09:26:53.024Z,13.80
2022-11-27T09:27:53.214Z,15.40
2022-11-27T09:28:53.364Z,13.30
2022-11-27T09:29:53.525Z,12.30
2022-11-27T09:30:53.715Z,11.00
2022-11-27T09:31:53.966Z,10.60
2022-11-27T09:32:54.082Z,16.30
2022-11-27T09:33:54.263Z,14.50
2022-11-27T09:34:54.445Z,10.10
2022-11-27T09:35:54.573Z,12.60
2022-11-27T09:36:54.778Z,18.00
2022-11-27T09:37:54.916Z,12.00
2022-11-27T09:38:55.064Z,12.00
2022-11-27T09:39:55.263Z,9.90
2022-11-27T09:40:58.105Z,13.40
2022-11-27T09:41:56.625Z,14.70
2022-11-27T09:42:55.804Z,13.60
2022-11-27T09:43:55.962Z,12.80
2022-11-27T09:44:56.121Z,11.70
2022-11-27T09:45:56.341Z,10.90
2022-11-27T09:46:56.505Z,13.60
2022-11-27T09:47:56.663Z,13.00
2022-11-27T09:48:56.812Z,12.20
2022-11-27T09:49:57.012Z,12.60
2022-11-27T09:50:57.200Z,13.80
2022-11-27T09:51:57.398Z,14.30
2022-11-27T09:52:57.552Z,13.20
2022-11-27T09:53:57.723Z,11.30
2022-11-27T09:54:57.912Z,12.40
2022-11-27T09:55:58.105Z,15.50
2022-11-27T09:56:58.345Z,11.70
2022-11-27T09:57:58.451Z,13.50
2022-11-27T09:58:58.665Z,10.10
2022-11-27T09:59:58.814Z,15.50
2022-11-27T10:00:58.962Z,13.60
2022-11-27T10:01:59.283Z,16.70
2022-11-27T10:02:59.384Z,13.60
2022-11-27T10:03:59.483Z,9.30
2022-11-27T10:05:13.578Z,13.40
2022-11-27T10:06:00.821Z,13.50
2022-11-27T10:06:59.994Z,11.00
2022-11-27T10:08:06.060Z,10.40
2022-11-27T10:09:01.358Z,11.80
2022-11-27T10:10:00.533Z,14.70
2022-11-27T10:11:00.691Z,15.20
2022-11-27T10:12:00.842Z,14.00
2022-11-27T10:13:01.030Z,13.50
2022-11-27T10:14:01.212Z,14.30
2022-11-27T10:15:01.417Z,11.10
2022-11-27T10:16:01.608Z,12.20
2022-11-27T10:17:01.789Z,13.40
2022-11-27T10:18:01.903Z,13.20
2022-11-27T10:19:02.090Z,11.10
2022-11-27T10:20:02.253Z,19.90
2022-11-27T10:21:02.445Z,14.00
2022-11-27T10:22:02.669Z,11.10
2022-11-27T10:23:02.856Z,16.20
2022-11-27T10:24:02.990Z,12.00
2022-11-27T10:25:03.195Z,9.50
2022-11-27T10:26:03.349Z,14.60
2022-11-27T10:27:03.553Z,16.10
2022-11-27T10:28:03.719Z,12.50
2022-11-27T10:29:03.879Z,14.10
2022-11-27T10:30:04.039Z,14.00
2022-11-27T10:31:04.268Z,13.00
2022-11-27T10:32:04.450Z,9.30
2022-11-27T10:33:04.642Z,12.50
2022-11-27T10:34:04.780Z,22.10
2022-11-27T10:35:05.016Z,14.30
2022-11-27T10:36:05.080Z,12.20
2022-11-27T10:37:05.288Z,15.70
2022-11-27T10:38:07.226Z,12.80
2022-11-27T10:39:05.648Z,12.50
2022-11-27T10:40:05.796Z,12.50
2022-11-27T10:41:06.446Z,10.30
2022-11-27T10:42:06.166Z,18.80
2022-11-27T10:43:06.348Z,11.90
2022-11-27T10:44:06.489Z,11.70
2022-11-27T10:45:06.649Z,12.70
2022-11-27T10:46:06.915Z,14.50
2022-11-27T10:47:07.010Z,12.80
2022-11-27T10:48:07.188Z,13.30
2022-11-27T10:49:07.337Z,13.70
2022-11-27T10:50:07.492Z,14.10
2022-11-27T10:51:07.658Z,10.70
2022-11-27T10:52:07.830Z,11.70
2022-11-27T10:53:07.988Z,15.00
2022-11-27T10:54:08.148Z,11.80
2022-11-27T10:55:08.310Z,11.50
2022-11-27T10:56:08.515Z,10.30
2022-11-27T10:57:08.676Z,11.60
2022-11-27T10:58:08.843Z,9.70
2022-11-27T10:59:09.019Z,14.00
2022-11-27T11:00:09.219Z,10.40
2022-11-27T11:01:09.415Z,16.40
2022-11-27T11:02:09.598Z,11.50
2022-11-27T11:03:09.707Z,17.60
2022-11-27T11:04:31.689Z,16.70
2022-11-27T11:05:32.859Z,12.40
2022-11-27T11:06:20.687Z,13.00
2022-11-27T11:07:11.469Z,11.80
2022-11-27T11:08:10.610Z,13.70
2022-11-27T11:09:10.787Z,10.70
2022-11-27T11:10:10.945Z,8.70
2022-11-27T11:11:11.127Z,11.60
2022-11-27T11:12:11.316Z,9.00
2022-11-27T11:13:11.459Z,10.10
2022-11-27T11:14:11.618Z,11.10
2022-11-27T11:15:11.796Z,11.90
2022-11-27T11:16:14.736Z,8.00
2022-11-27T11:17:12.725Z,11.70
2022-11-27T11:18:12.316Z,7.90
2022-11-27T11:19:12.506Z,10.30
2022-11-27T11:20:12.688Z,7.60
2022-11-27T11:21:12.827Z,8.40
2022-11-27T11:22:14.603Z,7.90
2022-11-27T11:23:13.157Z,6.10
2022-11-27T11:24:13.336Z,9.80
2022-11-27T11:25:13.527Z,10.80
2022-11-27T11:26:13.686Z,11.70
2022-11-27T11:27:13.893Z,9.50
2022-11-27T11:28:14.085Z,9.60
2022-11-27T11:29:14.206Z,9.70
2022-11-27T11:30:14.380Z,7.10
2022-11-27T11:31:14.593Z,8.00
2022-11-27T11:32:14.851Z,7.40
2022-11-27T11:33:14.918Z,6.70
2022-11-27T11:34:15.099Z,9.80
2022-11-27T11:35:15.286Z,8.70
2022-11-27T11:36:15.475Z,8.60
2022-11-27T11:37:15.675Z,11.30
2022-11-27T11:38:15.825Z,7.20
2022-11-27T11:39:16.015Z,8.40
2022-11-27T11:40:16.682Z,7.40
2022-11-27T11:41:16.385Z,7.40
2022-11-27T11:42:16.545Z,11.70
2022-11-27T11:43:16.715Z,8.80
2022-11-27T11:44:16.906Z,7.50
2022-11-27T11:45:17.125Z,7.30
2022-11-27T11:46:17.347Z,8.80
2022-11-27T11:47:17.454Z,9.30
2022-11-27T11:48:17.594Z,8.50
2022-11-27T11:49:17.785Z,8.40
2022-11-27T11:50:17.965Z,8.40
2022-11-27T11:51:18.173Z,11.90
2022-11-27T11:52:18.349Z,7.70
2022-11-27T11:53:18.516Z,7.00
2022-11-27T11:54:18.694Z,7.10
2022-11-27T11:55:18.856Z,8.30
2022-11-27T11:56:19.047Z,8.50
2022-11-27T11:57:19.224Z,10.20
2022-11-27T11:58:19.397Z,6.70
2022-11-27T11:59:19.583Z,9.70
2022-11-27T12:00:21.198Z,8.60
2022-11-27T12:01:26.808Z,9.00
2022-11-27T12:02:21.108Z,10.80
2022-11-27T12:03:20.244Z,15.10
2022-11-27T12:04:20.450Z,9.20
2022-11-27T12:05:20.564Z,8.30
2022-11-27T12:06:20.747Z,11.40
2022-11-27T12:07:20.985Z,7.50
2022-11-27T12:08:21.093Z,6.30
2022-11-27T12:09:21.283Z,5.00
2022-11-27T12:10:21.580Z,6.10
2022-11-27T12:11:21.634Z,6.30
2022-11-27T12:12:21.843Z,8.40
2022-11-27T12:13:21.975Z,8.40
2022-11-27T12:14:22.155Z,5.40
2022-11-27T12:15:22.333Z,8.20
2022-11-27T12:16:22.607Z,10.00
2022-11-27T12:17:22.694Z,6.30
2022-11-27T12:18:22.832Z,8.70
2022-11-27T12:19:23.024Z,8.60
2022-11-27T12:20:23.173Z,8.40
2022-11-27T12:21:23.363Z,5.90
2022-11-27T12:22:23.552Z,10.50
2022-11-27T12:23:23.715Z,7.90
2022-11-27T12:24:23.892Z,7.30
2022-11-27T12:25:24.094Z,8.40
2022-11-27T12:26:24.255Z,7.70
2022-11-27T12:27:24.443Z,6.50
2022-11-27T12:28:24.613Z,5.60
2022-11-27T12:29:24.755Z,5.60
2022-11-27T12:30:24.943Z,7.50
2022-11-27T12:31:25.177Z,7.00
2022-11-27T12:32:25.323Z,8.50
2022-11-27T12:33:25.472Z,8.20
2022-11-27T12:34:25.655Z,10.90
2022-11-27T12:35:25.813Z,5.90
2022-11-27T12:36:26.001Z,5.90
2022-11-27T12:37:26.186Z,8.50
2022-11-27T12:38:26.383Z,3.30
2022-11-27T12:39:26.532Z,5.20
2022-11-27T12:40:26.722Z,5.50
2022-11-27T12:41:26.925Z,8.20
2022-11-27T12:42:27.104Z,3.60
2022-11-27T12:43:27.287Z,7.70
2022-11-27T12:44:27.463Z,7.10
2022-11-27T12:45:27.675Z,8.70
2022-11-27T12:46:27.865Z,7.80
2022-11-27T12:47:28.012Z,6.30
2022-11-27T12:48:28.144Z,7.90
2022-11-27T12:49:28.332Z,9.10
2022-11-27T12:50:28.510Z,9.70
2022-11-27T12:51:28.694Z,8.00
2022-11-27T12:52:28.901Z,6.20
2022-11-27T12:53:29.042Z,4.90
2022-11-27T12:54:29.222Z,5.70
2022-11-27T12:55:29.414Z,6.20
2022-11-27T12:56:29.591Z,7.20